sensor_id;sensor_type;location;lat;lon;timestamp;temperature;humidity
73955;DHT22;62306;52.516;13.290;2023-02-15T00:02:02;4.30;96.80
73955;DHT22;62306;52.516;13.290;2023-02-15T00:04:29;4.30;96.60
73955;DHT22;62306;52.516;13.290;2023-02-15T00:07:13;4.30;96.60
73955;DHT22;62306;52.516;13.290;2023-02-15T00:09:40;4.20;96.80
73955;DHT22;62306;52.516;13.290;2023-02-15T00:12:08;4.20;96.80
73955;DHT22;62306;52.516;13.290;2023-02-15T00:14:35;4.20;97.00
73955;DHT22;62306;52.516;13.290;2023-02-15T00:17:03;4.20;97.10
73955;DHT22;62306;52.516;13.290;2023-02-15T00:19:30;4.20;97.10
73955;DHT22;62306;52.516;13.290;2023-02-15T00:21:57;4.20;97.10
73955;DHT22;62306;52.516;13.290;2023-02-15T00:24:24;4.20;97.20
73955;DHT22;62306;52.516;13.290;2023-02-15T00:26:51;4.10;97.10
73955;DHT22;62306;52.516;13.290;2023-02-15T00:29:20;4.20;97.10
73955;DHT22;62306;52.516;13.290;2023-02-15T00:31:47;4.20;97.10
73955;DHT22;62306;52.516;13.290;2023-02-15T00:34:17;4.20;97.10
73955;DHT22;62306;52.516;13.290;2023-02-15T00:36:45;4.20;96.90
73955;DHT22;62306;52.516;13.290;2023-02-15T00:39:12;4.20;96.90
73955;DHT22;62306;52.516;13.290;2023-02-15T00:41:39;4.20;97.00
73955;DHT22;62306;52.516;13.290;2023-02-15T00:44:07;4.10;97.00
73955;DHT22;62306;52.516;13.290;2023-02-15T00:46:36;4.10;97.20
73955;DHT22;62306;52.516;13.290;2023-02-15T00:49:03;4.10;97.00
73955;DHT22;62306;52.516;13.290;2023-02-15T00:51:30;4.20;97.00
73955;DHT22;62306;52.516;13.290;2023-02-15T00:53:58;4.20;96.90
73955;DHT22;62306;52.516;13.290;2023-02-15T00:56:25;4.10;97.10
73955;DHT22;62306;52.516;13.290;2023-02-15T00:58:53;4.10;97.10
73955;DHT22;62306;52.516;13.290;2023-02-15T01:01:21;4.10;97.00
73955;DHT22;62306;52.516;13.290;2023-02-15T01:03:50;4.10;96.90
73955;DHT22;62306;52.516;13.290;2023-02-15T01:06:17;4.00;97.10
73955;DHT22;62306;52.516;13.290;2023-02-15T01:08:44;4.00;97.30
73955;DHT22;62306;52.516;13.290;2023-02-15T01:11:13;4.10;97.10
73955;DHT22;62306;52.516;13.290;2023-02-15T01:13:47;4.10;96.90
73955;DHT22;62306;52.516;13.290;2023-02-15T01:16:14;4.00;97.10
73955;DHT22;62306;52.516;13.290;2023-02-15T01:18:41;4.00;97.30
73955;DHT22;62306;52.516;13.290;2023-02-15T01:21:11;4.00;97.30
73955;DHT22;62306;52.516;13.290;2023-02-15T01:23:39;4.00;97.20
73955;DHT22;62306;52.516;13.290;2023-02-15T01:26:06;4.00;97.30
73955;DHT22;62306;52.516;13.290;2023-02-15T01:28:33;4.00;97.30
73955;DHT22;62306;52.516;13.290;2023-02-15T01:31:05;3.90;97.40
73955;DHT22;62306;52.516;13.290;2023-02-15T01:33:32;3.90;97.60
73955;DHT22;62306;52.516;13.290;2023-02-15T01:35:59;3.90;97.40
73955;DHT22;62306;52.516;13.290;2023-02-15T01:38:27;3.90;97.30
73955;DHT22;62306;52.516;13.290;2023-02-15T01:40:54;3.90;97.30
73955;DHT22;62306;52.516;13.290;2023-02-15T01:43:46;3.90;97.30
73955;DHT22;62306;52.516;13.290;2023-02-15T01:46:14;3.90;97.30
73955;DHT22;62306;52.516;13.290;2023-02-15T01:48:45;3.90;97.50
73955;DHT22;62306;52.516;13.290;2023-02-15T01:51:14;3.80;97.80
73955;DHT22;62306;52.516;13.290;2023-02-15T01:53:51;3.80;97.80
73955;DHT22;62306;52.516;13.290;2023-02-15T01:56:20;3.80;97.80
73955;DHT22;62306;52.516;13.290;2023-02-15T01:58:49;3.80;97.80
73955;DHT22;62306;52.516;13.290;2023-02-15T02:01:18;3.80;97.80
73955;DHT22;62306;52.516;13.290;2023-02-15T02:03:53;3.80;97.80
73955;DHT22;62306;52.516;13.290;2023-02-15T02:06:24;3.80;97.70
73955;DHT22;62306;52.516;13.290;2023-02-15T02:08:54;3.80;97.70
73955;DHT22;62306;52.516;13.290;2023-02-15T02:11:21;3.80;97.70
73955;DHT22;62306;52.516;13.290;2023-02-15T02:13:51;3.80;97.80
73955;DHT22;62306;52.516;13.290;2023-02-15T02:16:22;3.70;98.00
73955;DHT22;62306;52.516;13.290;2023-02-15T02:18:59;3.70;98.20
73955;DHT22;62306;52.516;13.290;2023-02-15T02:21:42;3.70;98.20
73955;DHT22;62306;52.516;13.290;2023-02-15T02:24:29;3.70;98.30
73955;DHT22;62306;52.516;13.290;2023-02-15T02:27:18;3.60;98.20
73955;DHT22;62306;52.516;13.290;2023-02-15T02:30:23;3.70;98.30
73955;DHT22;62306;52.516;13.290;2023-02-15T02:33:27;3.70;98.30
73955;DHT22;62306;52.516;13.290;2023-02-15T02:36:06;3.70;98.30
73955;DHT22;62306;52.516;13.290;2023-02-15T02:38:45;3.70;98.40
73955;DHT22;62306;52.516;13.290;2023-02-15T02:41:20;3.60;98.40
73955;DHT22;62306;52.516;13.290;2023-02-15T02:43:51;3.60;98.60
73955;DHT22;62306;52.516;13.290;2023-02-15T02:46:24;3.60;98.40
73955;DHT22;62306;52.516;13.290;2023-02-15T02:48:54;3.70;98.10
73955;DHT22;62306;52.516;13.290;2023-02-15T02:51:21;3.70;97.80
73955;DHT22;62306;52.516;13.290;2023-02-15T02:53:52;3.70;97.70
73955;DHT22;62306;52.516;13.290;2023-02-15T02:56:24;3.70;97.80
73955;DHT22;62306;52.516;13.290;2023-02-15T02:58:55;3.70;97.70
73955;DHT22;62306;52.516;13.290;2023-02-15T03:01:27;3.70;97.80
73955;DHT22;62306;52.516;13.290;2023-02-15T03:04:00;3.70;97.80
73955;DHT22;62306;52.516;13.290;2023-02-15T03:06:36;3.70;97.80
73955;DHT22;62306;52.516;13.290;2023-02-15T03:09:09;3.70;97.80
73955;DHT22;62306;52.516;13.290;2023-02-15T03:11:42;3.60;97.90
73955;DHT22;62306;52.516;13.290;2023-02-15T03:14:10;3.60;97.90
73955;DHT22;62306;52.516;13.290;2023-02-15T03:16:38;3.50;98.20
73955;DHT22;62306;52.516;13.290;2023-02-15T03:19:09;3.50;98.10
73955;DHT22;62306;52.516;13.290;2023-02-15T03:21:46;3.50;98.00
73955;DHT22;62306;52.516;13.290;2023-02-15T03:24:24;3.60;98.00
73955;DHT22;62306;52.516;13.290;2023-02-15T03:26:54;3.60;97.90
73955;DHT22;62306;52.516;13.290;2023-02-15T03:29:25;3.50;98.00
73955;DHT22;62306;52.516;13.290;2023-02-15T03:31:56;3.50;98.10
73955;DHT22;62306;52.516;13.290;2023-02-15T03:34:27;3.50;98.10
73955;DHT22;62306;52.516;13.290;2023-02-15T03:36:59;3.40;98.20
73955;DHT22;62306;52.516;13.290;2023-02-15T03:39:30;3.40;98.30
73955;DHT22;62306;52.516;13.290;2023-02-15T03:42:06;3.30;98.40
73955;DHT22;62306;52.516;13.290;2023-02-15T03:44:41;3.20;98.60
73955;DHT22;62306;52.516;13.290;2023-02-15T03:47:11;3.20;98.40
73955;DHT22;62306;52.516;13.290;2023-02-15T03:49:44;3.20;98.30
73955;DHT22;62306;52.516;13.290;2023-02-15T03:52:13;3.20;98.20
73955;DHT22;62306;52.516;13.290;2023-02-15T03:54:41;3.20;97.90
73955;DHT22;62306;52.516;13.290;2023-02-15T03:57:15;3.10;98.00
73955;DHT22;62306;52.516;13.290;2023-02-15T04:00:00;3.10;97.90
73955;DHT22;62306;52.516;13.290;2023-02-15T04:05:44;3.00;98.30
73955;DHT22;62306;52.516;13.290;2023-02-15T04:08:11;3.00;98.20
73955;DHT22;62306;52.516;13.290;2023-02-15T04:10:39;3.00;98.30
73955;DHT22;62306;52.516;13.290;2023-02-15T04:13:23;2.90;98.20
73955;DHT22;62306;52.516;13.290;2023-02-15T04:15:50;2.90;98.30
73955;DHT22;62306;52.516;13.290;2023-02-15T04:18:32;2.90;98.30
73955;DHT22;62306;52.516;13.290;2023-02-15T04:21:18;2.80;98.30
73955;DHT22;62306;52.516;13.290;2023-02-15T04:24:04;2.70;98.60
73955;DHT22;62306;52.516;13.290;2023-02-15T04:26:48;2.60;98.80
73955;DHT22;62306;52.516;13.290;2023-02-15T04:29:18;2.60;98.80
73955;DHT22;62306;52.516;13.290;2023-02-15T04:31:45;2.60;98.90
73955;DHT22;62306;52.516;13.290;2023-02-15T04:34:12;2.60;98.80
73955;DHT22;62306;52.516;13.290;2023-02-15T04:36:41;2.60;99.00
73955;DHT22;62306;52.516;13.290;2023-02-15T04:39:08;2.60;98.80
73955;DHT22;62306;52.516;13.290;2023-02-15T04:41:35;2.50;99.00
73955;DHT22;62306;52.516;13.290;2023-02-15T04:44:03;2.60;98.70
73955;DHT22;62306;52.516;13.290;2023-02-15T04:46:30;2.60;98.60
73955;DHT22;62306;52.516;13.290;2023-02-15T04:48:57;2.50;99.00
73955;DHT22;62306;52.516;13.290;2023-02-15T04:51:24;2.50;99.20
73955;DHT22;62306;52.516;13.290;2023-02-15T04:53:53;2.50;99.20
73955;DHT22;62306;52.516;13.290;2023-02-15T04:56:20;2.50;99.00
73955;DHT22;62306;52.516;13.290;2023-02-15T04:58:47;2.50;99.00
73955;DHT22;62306;52.516;13.290;2023-02-15T05:01:15;2.40;99.10
73955;DHT22;62306;52.516;13.290;2023-02-15T05:03:42;2.50;99.00
73955;DHT22;62306;52.516;13.290;2023-02-15T05:06:09;2.40;98.90
73955;DHT22;62306;52.516;13.290;2023-02-15T05:08:35;2.40;98.90
73955;DHT22;62306;52.516;13.290;2023-02-15T05:11:04;2.30;99.00
73955;DHT22;62306;52.516;13.290;2023-02-15T05:13:31;2.30;99.20
73955;DHT22;62306;52.516;13.290;2023-02-15T05:15:57;2.30;99.00
73955;DHT22;62306;52.516;13.290;2023-02-15T05:18:25;2.20;99.00
73955;DHT22;62306;52.516;13.290;2023-02-15T05:20:51;1.90;99.10
73955;DHT22;62306;52.516;13.290;2023-02-15T05:23:18;2.10;99.30
73955;DHT22;62306;52.516;13.290;2023-02-15T05:25:49;2.10;99.50
73955;DHT22;62306;52.516;13.290;2023-02-15T05:28:36;2.00;99.60
73955;DHT22;62306;52.516;13.290;2023-02-15T05:31:05;2.00;99.60
73955;DHT22;62306;52.516;13.290;2023-02-15T05:33:33;1.90;99.70
73955;DHT22;62306;52.516;13.290;2023-02-15T05:36:00;1.90;99.90
73955;DHT22;62306;52.516;13.290;2023-02-15T05:38:27;1.90;99.80
73955;DHT22;62306;52.516;13.290;2023-02-15T05:40:54;1.90;99.80
73955;DHT22;62306;52.516;13.290;2023-02-15T05:43:22;1.90;99.90
73955;DHT22;62306;52.516;13.290;2023-02-15T05:45:51;1.90;99.90
73955;DHT22;62306;52.516;13.290;2023-02-15T05:48:20;1.90;99.80
73955;DHT22;62306;52.516;13.290;2023-02-15T05:50:57;1.80;99.90
73955;DHT22;62306;52.516;13.290;2023-02-15T05:53:25;1.80;99.90
73955;DHT22;62306;52.516;13.290;2023-02-15T05:55:52;1.90;99.90
73955;DHT22;62306;52.516;13.290;2023-02-15T05:58:19;1.90;99.80
73955;DHT22;62306;52.516;13.290;2023-02-15T06:00:46;1.90;99.80
73955;DHT22;62306;52.516;13.290;2023-02-15T06:03:14;2.10;99.80
73955;DHT22;62306;52.516;13.290;2023-02-15T06:05:42;1.90;99.80
73955;DHT22;62306;52.516;13.290;2023-02-15T06:08:09;1.90;99.80
73955;DHT22;62306;52.516;13.290;2023-02-15T06:10:36;1.90;99.60
73955;DHT22;62306;52.516;13.290;2023-02-15T06:13:03;1.90;99.60
73955;DHT22;62306;52.516;13.290;2023-02-15T06:15:30;1.90;99.50
73955;DHT22;62306;52.516;13.290;2023-02-15T06:17:57;1.90;99.60
73955;DHT22;62306;52.516;13.290;2023-02-15T06:20:25;1.90;99.70
73955;DHT22;62306;52.516;13.290;2023-02-15T06:22:52;1.90;99.70
73955;DHT22;62306;52.516;13.290;2023-02-15T06:25:19;1.90;99.70
73955;DHT22;62306;52.516;13.290;2023-02-15T06:27:46;1.80;99.80
73955;DHT22;62306;52.516;13.290;2023-02-15T06:30:13;1.70;99.90
73955;DHT22;62306;52.516;13.290;2023-02-15T06:32:40;1.70;99.90
73955;DHT22;62306;52.516;13.290;2023-02-15T06:35:07;1.70;99.90
73955;DHT22;62306;52.516;13.290;2023-02-15T06:37:36;1.80;99.90
73955;DHT22;62306;52.516;13.290;2023-02-15T06:40:03;1.70;99.90
73955;DHT22;62306;52.516;13.290;2023-02-15T06:42:30;1.70;99.90
73955;DHT22;62306;52.516;13.290;2023-02-15T06:44:58;1.70;99.90
73955;DHT22;62306;52.516;13.290;2023-02-15T06:47:25;1.80;99.90
73955;DHT22;62306;52.516;13.290;2023-02-15T06:49:52;1.90;99.70
73955;DHT22;62306;52.516;13.290;2023-02-15T06:52:19;1.90;99.70
73955;DHT22;62306;52.516;13.290;2023-02-15T06:54:48;2.00;99.30
73955;DHT22;62306;52.516;13.290;2023-02-15T06:57:15;2.00;99.20
73955;DHT22;62306;52.516;13.290;2023-02-15T06:59:42;2.00;99.40
73955;DHT22;62306;52.516;13.290;2023-02-15T07:02:09;2.00;99.40
73955;DHT22;62306;52.516;13.290;2023-02-15T07:04:37;2.00;99.20
73955;DHT22;62306;52.516;13.290;2023-02-15T07:07:04;1.90;99.50
73955;DHT22;62306;52.516;13.290;2023-02-15T07:09:34;1.70;99.90
73955;DHT22;62306;52.516;13.290;2023-02-15T07:12:03;1.90;99.80
73955;DHT22;62306;52.516;13.290;2023-02-15T07:14:47;2.00;99.90
73955;DHT22;62306;52.516;13.290;2023-02-15T07:17:14;2.10;99.90
73955;DHT22;62306;52.516;13.290;2023-02-15T07:19:41;2.20;99.90
73955;DHT22;62306;52.516;13.290;2023-02-15T07:22:08;2.20;99.40
73955;DHT22;62306;52.516;13.290;2023-02-15T07:24:35;2.10;99.80
73955;DHT22;62306;52.516;13.290;2023-02-15T07:27:03;2.10;99.70
73955;DHT22;62306;52.516;13.290;2023-02-15T07:29:30;2.10;99.50
73955;DHT22;62306;52.516;13.290;2023-02-15T07:31:57;2.20;99.70
73955;DHT22;62306;52.516;13.290;2023-02-15T07:34:24;2.30;99.30
73955;DHT22;62306;52.516;13.290;2023-02-15T07:36:51;2.30;99.00
73955;DHT22;62306;52.516;13.290;2023-02-15T07:39:19;2.20;99.50
73955;DHT22;62306;52.516;13.290;2023-02-15T07:41:46;2.30;99.50
73955;DHT22;62306;52.516;13.290;2023-02-15T07:44:15;2.40;99.30
73955;DHT22;62306;52.516;13.290;2023-02-15T07:46:42;2.60;98.90
73955;DHT22;62306;52.516;13.290;2023-02-15T07:49:09;2.70;98.60
73955;DHT22;62306;52.516;13.290;2023-02-15T07:51:36;2.80;98.20
73955;DHT22;62306;52.516;13.290;2023-02-15T07:54:03;2.90;97.70
73955;DHT22;62306;52.516;13.290;2023-02-15T07:56:29;2.90;97.30
73955;DHT22;62306;52.516;13.290;2023-02-15T07:58:58;2.80;97.70
73955;DHT22;62306;52.516;13.290;2023-02-15T08:01:33;2.80;97.60
73955;DHT22;62306;52.516;13.290;2023-02-15T08:04:01;2.60;97.60
73955;DHT22;62306;52.516;13.290;2023-02-15T08:06:31;2.70;98.20
73955;DHT22;62306;52.516;13.290;2023-02-15T08:08:58;2.70;98.00
73955;DHT22;62306;52.516;13.290;2023-02-15T08:11:27;3.00;97.50
73955;DHT22;62306;52.516;13.290;2023-02-15T08:14:04;3.00;97.10
73955;DHT22;62306;52.516;13.290;2023-02-15T08:16:35;2.90;97.30
73955;DHT22;62306;52.516;13.290;2023-02-15T08:19:05;2.80;97.50
73955;DHT22;62306;52.516;13.290;2023-02-15T08:21:34;2.90;97.60
73955;DHT22;62306;52.516;13.290;2023-02-15T08:24:02;3.10;97.20
73955;DHT22;62306;52.516;13.290;2023-02-15T08:26:30;3.30;96.60
73955;DHT22;62306;52.516;13.290;2023-02-15T08:28:58;3.40;96.20
73955;DHT22;62306;52.516;13.290;2023-02-15T08:31:25;3.10;96.40
73955;DHT22;62306;52.516;13.290;2023-02-15T08:33:55;3.20;96.80
73955;DHT22;62306;52.516;13.290;2023-02-15T08:36:24;3.10;97.10
73955;DHT22;62306;52.516;13.290;2023-02-15T08:38:51;3.10;97.00
73955;DHT22;62306;52.516;13.290;2023-02-15T08:41:20;3.30;96.70
73955;DHT22;62306;52.516;13.290;2023-02-15T08:43:49;3.50;96.10
73955;DHT22;62306;52.516;13.290;2023-02-15T08:46:18;3.70;95.70
73955;DHT22;62306;52.516;13.290;2023-02-15T08:48:45;3.80;95.20
73955;DHT22;62306;52.516;13.290;2023-02-15T08:51:15;3.80;94.90
73955;DHT22;62306;52.516;13.290;2023-02-15T08:53:45;3.80;94.80
73955;DHT22;62306;52.516;13.290;2023-02-15T08:56:14;4.10;94.80
73955;DHT22;62306;52.516;13.290;2023-02-15T08:58:41;4.00;94.60
73955;DHT22;62306;52.516;13.290;2023-02-15T09:01:09;4.10;94.50
73955;DHT22;62306;52.516;13.290;2023-02-15T09:03:36;4.30;94.30
73955;DHT22;62306;52.516;13.290;2023-02-15T09:06:04;4.20;93.80
73955;DHT22;62306;52.516;13.290;2023-02-15T09:08:33;4.40;93.60
73955;DHT22;62306;52.516;13.290;2023-02-15T09:11:08;4.40;93.30
73955;DHT22;62306;52.516;13.290;2023-02-15T09:13:36;4.50;93.00
73955;DHT22;62306;52.516;13.290;2023-02-15T09:16:05;4.70;92.80
73955;DHT22;62306;52.516;13.290;2023-02-15T09:18:35;4.80;92.40
73955;DHT22;62306;52.516;13.290;2023-02-15T09:21:08;4.90;92.10
73955;DHT22;62306;52.516;13.290;2023-02-15T09:23:38;5.00;92.10
73955;DHT22;62306;52.516;13.290;2023-02-15T09:26:07;5.10;91.70
73955;DHT22;62306;52.516;13.290;2023-02-15T09:28:34;5.10;91.30
73955;DHT22;62306;52.516;13.290;2023-02-15T09:31:10;5.20;91.30
73955;DHT22;62306;52.516;13.290;2023-02-15T09:33:39;5.10;91.20
73955;DHT22;62306;52.516;13.290;2023-02-15T09:36:15;4.70;91.60
73955;DHT22;62306;52.516;13.290;2023-02-15T09:38:47;4.30;92.60
73955;DHT22;62306;52.516;13.290;2023-02-15T09:41:35;4.50;93.10
73955;DHT22;62306;52.516;13.290;2023-02-15T09:44:14;4.80;92.50
73955;DHT22;62306;52.516;13.290;2023-02-15T09:47:01;4.70;92.30
73955;DHT22;62306;52.516;13.290;2023-02-15T09:49:38;4.60;92.50
73955;DHT22;62306;52.516;13.290;2023-02-15T09:52:34;4.90;92.20
73955;DHT22;62306;52.516;13.290;2023-02-15T09:55:28;4.80;92.30
73955;DHT22;62306;52.516;13.290;2023-02-15T09:58:07;4.70;92.40
73955;DHT22;62306;52.516;13.290;2023-02-15T10:00:47;4.70;92.30
73955;DHT22;62306;52.516;13.290;2023-02-15T10:03:27;4.60;92.90
73955;DHT22;62306;52.516;13.290;2023-02-15T10:12:02;5.00;92.20
73955;DHT22;62306;52.516;13.290;2023-02-15T10:15:02;5.20;91.70
73955;DHT22;62306;52.516;13.290;2023-02-15T10:17:44;5.30;91.40
73955;DHT22;62306;52.516;13.290;2023-02-15T10:20:23;5.40;91.40
73955;DHT22;62306;52.516;13.290;2023-02-15T10:23:05;5.60;90.80
73955;DHT22;62306;52.516;13.290;2023-02-15T10:25:42;5.80;90.50
73955;DHT22;62306;52.516;13.290;2023-02-15T10:28:16;5.80;90.10
73955;DHT22;62306;52.516;13.290;2023-02-15T10:30:46;5.80;90.20
73955;DHT22;62306;52.516;13.290;2023-02-15T10:33:24;5.70;90.00
73955;DHT22;62306;52.516;13.290;2023-02-15T10:36:02;5.50;90.90
73955;DHT22;62306;52.516;13.290;2023-02-15T10:38:35;5.60;90.90
73955;DHT22;62306;52.516;13.290;2023-02-15T10:41:15;5.60;90.90
73955;DHT22;62306;52.516;13.290;2023-02-15T10:44:00;5.50;90.80
73955;DHT22;62306;52.516;13.290;2023-02-15T10:46:46;5.70;91.40
73955;DHT22;62306;52.516;13.290;2023-02-15T10:49:37;5.70;91.00
73955;DHT22;62306;52.516;13.290;2023-02-15T10:52:18;5.50;91.30
73955;DHT22;62306;52.516;13.290;2023-02-15T10:54:54;5.50;91.50
73955;DHT22;62306;52.516;13.290;2023-02-15T10:57:33;5.30;91.60
73955;DHT22;62306;52.516;13.290;2023-02-15T11:00:09;5.20;92.30
73955;DHT22;62306;52.516;13.290;2023-02-15T11:02:53;5.20;92.60
73955;DHT22;62306;52.516;13.290;2023-02-15T11:05:30;5.30;92.40
73955;DHT22;62306;52.516;13.290;2023-02-15T11:08:05;5.50;92.00
73955;DHT22;62306;52.516;13.290;2023-02-15T11:10:36;5.60;91.90
73955;DHT22;62306;52.516;13.290;2023-02-15T11:13:14;5.70;91.70
73955;DHT22;62306;52.516;13.290;2023-02-15T11:15:46;5.90;91.10
73955;DHT22;62306;52.516;13.290;2023-02-15T11:18:24;5.90;91.30
73955;DHT22;62306;52.516;13.290;2023-02-15T11:20:57;5.90;91.30
73955;DHT22;62306;52.516;13.290;2023-02-15T11:23:30;6.00;91.30
73955;DHT22;62306;52.516;13.290;2023-02-15T11:26:17;5.90;91.20
73955;DHT22;62306;52.516;13.290;2023-02-15T11:28:52;6.10;91.00
73955;DHT22;62306;52.516;13.290;2023-02-15T11:31:26;6.00;91.40
73955;DHT22;62306;52.516;13.290;2023-02-15T11:34:03;6.20;91.20
73955;DHT22;62306;52.516;13.290;2023-02-15T11:36:37;6.40;90.80
73955;DHT22;62306;52.516;13.290;2023-02-15T11:39:11;6.60;90.40
73955;DHT22;62306;52.516;13.290;2023-02-15T11:41:43;6.80;89.90
73955;DHT22;62306;52.516;13.290;2023-02-15T11:44:15;7.00;89.10
73955;DHT22;62306;52.516;13.290;2023-02-15T11:46:45;7.20;87.60
73955;DHT22;62306;52.516;13.290;2023-02-15T11:49:23;7.40;86.20
73955;DHT22;62306;52.516;13.290;2023-02-15T11:51:59;7.40;85.30
73955;DHT22;62306;52.516;13.290;2023-02-15T11:54:30;7.40;86.10
73955;DHT22;62306;52.516;13.290;2023-02-15T11:57:02;7.40;86.30
73955;DHT22;62306;52.516;13.290;2023-02-15T11:59:38;7.40;86.50
73955;DHT22;62306;52.516;13.290;2023-02-15T12:02:16;7.50;86.60
73955;DHT22;62306;52.516;13.290;2023-02-15T12:04:49;7.60;85.60
73955;DHT22;62306;52.516;13.290;2023-02-15T12:07:23;7.80;85.00
73955;DHT22;62306;52.516;13.290;2023-02-15T12:13:09;7.60;84.70
73955;DHT22;62306;52.516;13.290;2023-02-15T12:15:37;7.70;85.30
73955;DHT22;62306;52.516;13.290;2023-02-15T12:18:19;7.90;85.10
73955;DHT22;62306;52.516;13.290;2023-02-15T12:20:47;8.10;83.50
73955;DHT22;62306;52.516;13.290;2023-02-15T12:23:16;8.30;82.80
73955;DHT22;62306;52.516;13.290;2023-02-15T12:25:50;8.00;83.30
73955;DHT22;62306;52.516;13.290;2023-02-15T12:28:26;8.00;83.80
73955;DHT22;62306;52.516;13.290;2023-02-15T12:30:56;8.10;83.70
73955;DHT22;62306;52.516;13.290;2023-02-15T12:33:29;8.20;83.50
73955;DHT22;62306;52.516;13.290;2023-02-15T12:36:00;8.40;82.50
73955;DHT22;62306;52.516;13.290;2023-02-15T12:38:28;8.30;82.30
73955;DHT22;62306;52.516;13.290;2023-02-15T12:41:00;8.10;82.70
73955;DHT22;62306;52.516;13.290;2023-02-15T12:43:31;8.20;83.40
73955;DHT22;62306;52.516;13.290;2023-02-15T12:46:21;8.30;82.70
73955;DHT22;62306;52.516;13.290;2023-02-15T12:49:06;8.50;82.40
73955;DHT22;62306;52.516;13.290;2023-02-15T12:51:47;8.70;81.00
73955;DHT22;62306;52.516;13.290;2023-02-15T12:54:25;8.80;80.50
73955;DHT22;62306;52.516;13.290;2023-02-15T12:56:54;8.90;80.20
73955;DHT22;62306;52.516;13.290;2023-02-15T12:59:23;9.10;79.40
73955;DHT22;62306;52.516;13.290;2023-02-15T13:01:51;9.10;79.30
73955;DHT22;62306;52.516;13.290;2023-02-15T13:04:25;9.20;79.30
73955;DHT22;62306;52.516;13.290;2023-02-15T13:06:55;9.10;79.20
73955;DHT22;62306;52.516;13.290;2023-02-15T13:09:34;9.30;78.90
73955;DHT22;62306;52.516;13.290;2023-02-15T13:12:11;9.60;78.40
73955;DHT22;62306;52.516;13.290;2023-02-15T13:14:44;9.80;76.90
73955;DHT22;62306;52.516;13.290;2023-02-15T13:17:13;10.00;76.40
73955;DHT22;62306;52.516;13.290;2023-02-15T13:19:46;10.10;75.50
73955;DHT22;62306;52.516;13.290;2023-02-15T13:22:16;10.00;75.40
73955;DHT22;62306;52.516;13.290;2023-02-15T13:24:47;9.80;76.40
73955;DHT22;62306;52.516;13.290;2023-02-15T13:27:17;9.80;77.10
73955;DHT22;62306;52.516;13.290;2023-02-15T13:29:48;9.60;77.40
73955;DHT22;62306;52.516;13.290;2023-02-15T13:32:25;9.80;77.50
73955;DHT22;62306;52.516;13.290;2023-02-15T13:34:57;10.00;76.80
73955;DHT22;62306;52.516;13.290;2023-02-15T13:37:42;10.10;76.50
73955;DHT22;62306;52.516;13.290;2023-02-15T13:40:14;10.00;76.70
73955;DHT22;62306;52.516;13.290;2023-02-15T13:42:46;10.00;77.00
73955;DHT22;62306;52.516;13.290;2023-02-15T13:45:33;10.00;77.00
73955;DHT22;62306;52.516;13.290;2023-02-15T13:48:11;9.90;77.50
73955;DHT22;62306;52.516;13.290;2023-02-15T13:51:01;10.00;77.30
73955;DHT22;62306;52.516;13.290;2023-02-15T13:53:44;10.10;77.20
73955;DHT22;62306;52.516;13.290;2023-02-15T13:56:18;10.30;76.40
73955;DHT22;62306;52.516;13.290;2023-02-15T13:59:05;10.50;76.00
73955;DHT22;62306;52.516;13.290;2023-02-15T14:01:41;10.60;75.40
73955;DHT22;62306;52.516;13.290;2023-02-15T14:10:25;10.40;75.80
73955;DHT22;62306;52.516;13.290;2023-02-15T14:13:12;10.40;76.40
73955;DHT22;62306;52.516;13.290;2023-02-15T14:15:49;10.40;76.40
73955;DHT22;62306;52.516;13.290;2023-02-15T14:18:24;10.30;80.50
73955;DHT22;62306;52.516;13.290;2023-02-15T14:21:00;10.30;79.70
73955;DHT22;62306;52.516;13.290;2023-02-15T14:23:41;10.40;78.70
73955;DHT22;62306;52.516;13.290;2023-02-15T14:26:15;10.40;77.30
73955;DHT22;62306;52.516;13.290;2023-02-15T14:28:53;10.40;77.30
73955;DHT22;62306;52.516;13.290;2023-02-15T14:31:29;10.30;77.50
73955;DHT22;62306;52.516;13.290;2023-02-15T14:33:57;10.30;77.50
73955;DHT22;62306;52.516;13.290;2023-02-15T14:36:26;10.30;77.30
73955;DHT22;62306;52.516;13.290;2023-02-15T14:39:02;10.30;77.60
73955;DHT22;62306;52.516;13.290;2023-02-15T14:41:58;10.30;77.50
73955;DHT22;62306;52.516;13.290;2023-02-15T14:44:30;10.00;78.50
73955;DHT22;62306;52.516;13.290;2023-02-15T14:47:04;9.90;79.40
73955;DHT22;62306;52.516;13.290;2023-02-15T14:49:37;9.90;79.40
73955;DHT22;62306;52.516;13.290;2023-02-15T14:52:05;9.80;79.80
73955;DHT22;62306;52.516;13.290;2023-02-15T14:54:53;9.80;80.10
73955;DHT22;62306;52.516;13.290;2023-02-15T14:57:25;9.80;80.60
73955;DHT22;62306;52.516;13.290;2023-02-15T14:59:55;9.60;81.30
73955;DHT22;62306;52.516;13.290;2023-02-15T15:02:27;9.60;81.80
73955;DHT22;62306;52.516;13.290;2023-02-15T15:05:08;9.60;81.90
73955;DHT22;62306;52.516;13.290;2023-02-15T15:07:41;9.60;81.90
73955;DHT22;62306;52.516;13.290;2023-02-15T15:10:37;9.60;81.80
73955;DHT22;62306;52.516;13.290;2023-02-15T15:13:38;9.50;82.40
73955;DHT22;62306;52.516;13.290;2023-02-15T15:16:34;9.50;82.70
73955;DHT22;62306;52.516;13.290;2023-02-15T15:19:12;9.60;82.50
73955;DHT22;62306;52.516;13.290;2023-02-15T15:22:04;9.50;82.60
73955;DHT22;62306;52.516;13.290;2023-02-15T15:24:51;9.60;82.30
73955;DHT22;62306;52.516;13.290;2023-02-15T15:27:44;9.70;82.30
73955;DHT22;62306;52.516;13.290;2023-02-15T15:33:51;9.60;82.10
73955;DHT22;62306;52.516;13.290;2023-02-15T15:42:45;9.30;83.70
73955;DHT22;62306;52.516;13.290;2023-02-15T15:45:38;9.20;84.30
73955;DHT22;62306;52.516;13.290;2023-02-15T15:48:29;9.10;85.10
73955;DHT22;62306;52.516;13.290;2023-02-15T15:51:02;9.00;85.60
73955;DHT22;62306;52.516;13.290;2023-02-15T15:53:34;8.90;85.90
73955;DHT22;62306;52.516;13.290;2023-02-15T15:56:07;8.90;85.50
73955;DHT22;62306;52.516;13.290;2023-02-15T15:58:42;8.80;86.00
73955;DHT22;62306;52.516;13.290;2023-02-15T16:01:11;8.80;85.90
73955;DHT22;62306;52.516;13.290;2023-02-15T16:03:48;8.70;86.50
73955;DHT22;62306;52.516;13.290;2023-02-15T16:06:30;8.60;87.20
73955;DHT22;62306;52.516;13.290;2023-02-15T16:09:08;8.60;87.30
73955;DHT22;62306;52.516;13.290;2023-02-15T16:11:36;8.50;87.80
73955;DHT22;62306;52.516;13.290;2023-02-15T16:14:11;8.40;88.40
73955;DHT22;62306;52.516;13.290;2023-02-15T16:16:39;8.30;88.80
73955;DHT22;62306;52.516;13.290;2023-02-15T16:19:22;8.30;89.10
73955;DHT22;62306;52.516;13.290;2023-02-15T16:21:49;8.20;89.40
73955;DHT22;62306;52.516;13.290;2023-02-15T16:24:26;8.20;89.40
73955;DHT22;62306;52.516;13.290;2023-02-15T16:27:24;8.10;89.80
73955;DHT22;62306;52.516;13.290;2023-02-15T16:29:54;8.00;90.10
73955;DHT22;62306;52.516;13.290;2023-02-15T16:32:22;7.90;90.30
73955;DHT22;62306;52.516;13.290;2023-02-15T16:34:54;7.80;90.40